sensor_id;sensor_type;location;lat;lon;timestamp;P1;P2;P0
54021;PMS7003;39936;51.058;17.220;2023-09-18T00:01:43;1;1;1
54021;PMS7003;39936;51.058;17.220;2023-09-18T00:04:59;2;2;1
54021;PMS7003;39936;51.058;17.220;2023-09-18T00:08:14;0;0;0
54021;PMS7003;39936;51.058;17.220;2023-09-18T00:11:29;2;2;1
54021;PMS7003;39936;51.058;17.220;2023-09-18T00:15:06;1;1;1
54021;PMS7003;39936;51.058;17.220;2023-09-18T00:18:31;0;0;0
54021;PMS7003;39936;51.058;17.220;2023-09-18T00:21:42;0;0;0
54021;PMS7003;39936;51.058;17.220;2023-09-18T00:25:03;1;1;1
54021;PMS7003;39936;51.058;17.220;2023-09-18T00:28:32;1;1;1
54021;PMS7003;39936;51.058;17.220;2023-09-18T00:31:47;0;0;0
54021;PMS7003;39936;51.058;17.220;2023-09-18T00:35:27;0;0;0
54021;PMS7003;39936;51.058;17.220;2023-09-18T00:38:45;2;2;1
54021;PMS7003;39936;51.058;17.220;2023-09-18T00:42:00;3;3;3
54021;PMS7003;39936;51.058;17.220;2023-09-18T00:45:54;0;0;0
54021;PMS7003;39936;51.058;17.220;2023-09-18T00:49:06;2;2;2
54021;PMS7003;39936;51.058;17.220;2023-09-18T00:52:46;1;1;1
54021;PMS7003;39936;51.058;17.220;2023-09-18T00:56:23;2;2;1
54021;PMS7003;39936;51.058;17.220;2023-09-18T00:59:36;2;2;1
54021;PMS7003;39936;51.058;17.220;2023-09-18T01:02:50;1;1;1
54021;PMS7003;39936;51.058;17.220;2023-09-18T01:06:10;1;1;1
54021;PMS7003;39936;51.058;17.220;2023-09-18T01:09:49;1;1;1
54021;PMS7003;39936;51.058;17.220;2023-09-18T01:13:05;1;1;1
54021;PMS7003;39936;51.058;17.220;2023-09-18T01:20:17;2;2;2
54021;PMS7003;39936;51.058;17.220;2023-09-18T01:23:41;1;1;1
54021;PMS7003;39936;51.058;17.220;2023-09-18T01:26:54;1;1;1
54021;PMS7003;39936;51.058;17.220;2023-09-18T01:30:23;2;2;2
54021;PMS7003;39936;51.058;17.220;2023-09-18T01:33:47;0;0;0
54021;PMS7003;39936;51.058;17.220;2023-09-18T01:37:13;0;0;0
54021;PMS7003;39936;51.058;17.220;2023-09-18T01:40:43;1;1;1
54021;PMS7003;39936;51.058;17.220;2023-09-18T01:47:48;0;0;0
54021;PMS7003;39936;51.058;17.220;2023-09-18T01:51:01;1;1;1
54021;PMS7003;39936;51.058;17.220;2023-09-18T01:54:50;0;0;0
54021;PMS7003;39936;51.058;17.220;2023-09-18T01:58:14;1;1;1
54021;PMS7003;39936;51.058;17.220;2023-09-18T02:01:32;0;0;0
54021;PMS7003;39936;51.058;17.220;2023-09-18T02:04:49;0;0;0
54021;PMS7003;39936;51.058;17.220;2023-09-18T02:08:02;1;1;0
54021;PMS7003;39936;51.058;17.220;2023-09-18T02:11:28;0;0;0
54021;PMS7003;39936;51.058;17.220;2023-09-18T02:14:41;0;0;0
54021;PMS7003;39936;51.058;17.220;2023-09-18T02:18:07;3;3;3
54021;PMS7003;39936;51.058;17.220;2023-09-18T02:21:20;1;1;1
54021;PMS7003;39936;51.058;17.220;2023-09-18T02:24:36;1;1;1
54021;PMS7003;39936;51.058;17.220;2023-09-18T02:27:54;1;1;1
54021;PMS7003;39936;51.058;17.220;2023-09-18T02:31:12;2;2;2
54021;PMS7003;39936;51.058;17.220;2023-09-18T02:34:31;1;1;1
54021;PMS7003;39936;51.058;17.220;2023-09-18T02:37:59;0;0;0
54021;PMS7003;39936;51.058;17.220;2023-09-18T02:41:25;2;2;1
54021;PMS7003;39936;51.058;17.220;2023-09-18T02:44:39;0;0;0
54021;PMS7003;39936;51.058;17.220;2023-09-18T02:48:29;1;1;1
54021;PMS7003;39936;51.058;17.220;2023-09-18T02:51:47;0;0;0
54021;PMS7003;39936;51.058;17.220;2023-09-18T02:55:14;1;1;1
54021;PMS7003;39936;51.058;17.220;2023-09-18T02:58:28;1;1;1
54021;PMS7003;39936;51.058;17.220;2023-09-18T03:02:27;1;1;1
54021;PMS7003;39936;51.058;17.220;2023-09-18T03:05:51;2;2;1
54021;PMS7003;39936;51.058;17.220;2023-09-18T03:09:21;0;0;0
54021;PMS7003;39936;51.058;17.220;2023-09-18T03:13:08;0;0;0
54021;PMS7003;39936;51.058;17.220;2023-09-18T03:16:23;0;0;0
54021;PMS7003;39936;51.058;17.220;2023-09-18T03:19:51;0;0;0
54021;PMS7003;39936;51.058;17.220;2023-09-18T03:23:50;0;0;0
54021;PMS7003;39936;51.058;17.220;2023-09-18T03:27:03;0;0;0
54021;PMS7003;39936;51.058;17.220;2023-09-18T03:30:19;1;1;1
54021;PMS7003;39936;51.058;17.220;2023-09-18T03:33:35;2;2;1
54021;PMS7003;39936;51.058;17.220;2023-09-18T03:37:30;1;1;1
54021;PMS7003;39936;51.058;17.220;2023-09-18T03:40:59;0;0;0
54021;PMS7003;39936;51.058;17.220;2023-09-18T03:44:22;0;0;0
54021;PMS7003;39936;51.058;17.220;2023-09-18T03:48:01;1;1;1
54021;PMS7003;39936;51.058;17.220;2023-09-18T03:51:20;2;2;1
54021;PMS7003;39936;51.058;17.220;2023-09-18T03:54:37;0;0;0
54021;PMS7003;39936;51.058;17.220;2023-09-18T03:57:56;0;0;0
54021;PMS7003;39936;51.058;17.220;2023-09-18T04:01:43;0;0;0
54021;PMS7003;39936;51.058;17.220;2023-09-18T04:05:09;1;1;1
54021;PMS7003;39936;51.058;17.220;2023-09-18T04:08:27;0;0;0
54021;PMS7003;39936;51.058;17.220;2023-09-18T04:11:52;1;1;0
54021;PMS7003;39936;51.058;17.220;2023-09-18T04:15:06;0;0;0
54021;PMS7003;39936;51.058;17.220;2023-09-18T04:18:19;2;2;1
54021;PMS7003;39936;51.058;17.220;2023-09-18T04:21:38;1;1;1
54021;PMS7003;39936;51.058;17.220;2023-09-18T04:24:57;0;0;0
54021;PMS7003;39936;51.058;17.220;2023-09-18T04:28:19;0;0;0
54021;PMS7003;39936;51.058;17.220;2023-09-18T04:35:29;0;0;0
54021;PMS7003;39936;51.058;17.220;2023-09-18T04:38:42;0;0;0
54021;PMS7003;39936;51.058;17.220;2023-09-18T04:42:01;0;0;0
54021;PMS7003;39936;51.058;17.220;2023-09-18T04:49:37;0;0;0
54021;PMS7003;39936;51.058;17.220;2023-09-18T04:56:39;0;0;0
54021;PMS7003;39936;51.058;17.220;2023-09-18T05:00:21;0;0;0
54021;PMS7003;39936;51.058;17.220;2023-09-18T05:03:39;0;0;0
54021;PMS7003;39936;51.058;17.220;2023-09-18T05:07:02;0;0;0
54021;PMS7003;39936;51.058;17.220;2023-09-18T05:11:07;0;0;0
54021;PMS7003;39936;51.058;17.220;2023-09-18T05:14:27;0;0;0
54021;PMS7003;39936;51.058;17.220;2023-09-18T05:18:00;0;0;0
54021;PMS7003;39936;51.058;17.220;2023-09-18T05:21:29;0;0;0
54021;PMS7003;39936;51.058;17.220;2023-09-18T05:24:47;7;7;7
54021;PMS7003;39936;51.058;17.220;2023-09-18T05:28:04;0;0;0
54021;PMS7003;39936;51.058;17.220;2023-09-18T05:31:27;19;18;16
54021;PMS7003;39936;51.058;17.220;2023-09-18T05:35:23;3;3;3
54021;PMS7003;39936;51.058;17.220;2023-09-18T05:38:36;1;1;1
54021;PMS7003;39936;51.058;17.220;2023-09-18T05:41:53;0;0;0
54021;PMS7003;39936;51.058;17.220;2023-09-18T05:45:24;0;0;0
54021;PMS7003;39936;51.058;17.220;2023-09-18T05:49:25;3;3;3
54021;PMS7003;39936;51.058;17.220;2023-09-18T05:52:38;1;1;1
54021;PMS7003;39936;51.058;17.220;2023-09-18T05:55:56;0;0;0
54021;PMS7003;39936;51.058;17.220;2023-09-18T05:59:27;0;0;0
54021;PMS7003;39936;51.058;17.220;2023-09-18T06:03:15;0;0;0
54021;PMS7003;39936;51.058;17.220;2023-09-18T06:06:33;0;0;0
54021;PMS7003;39936;51.058;17.220;2023-09-18T06:10:04;0;0;0
54021;PMS7003;39936;51.058;17.220;2023-09-18T06:13:40;0;0;0
54021;PMS7003;39936;51.058;17.220;2023-09-18T06:16:54;0;0;0
54021;PMS7003;39936;51.058;17.220;2023-09-18T06:20:09;0;0;0
54021;PMS7003;39936;51.058;17.220;2023-09-18T06:23:27;0;0;0
54021;PMS7003;39936;51.058;17.220;2023-09-18T06:26:44;0;0;0
54021;PMS7003;39936;51.058;17.220;2023-09-18T06:30:47;0;0;0
54021;PMS7003;39936;51.058;17.220;2023-09-18T06:34:06;0;0;0
54021;PMS7003;39936;51.058;17.220;2023-09-18T06:37:33;0;0;0
54021;PMS7003;39936;51.058;17.220;2023-09-18T06:40:48;0;0;0
54021;PMS7003;39936;51.058;17.220;2023-09-18T06:44:07;0;0;0
54021;PMS7003;39936;51.058;17.220;2023-09-18T06:47:25;1;1;1
54021;PMS7003;39936;51.058;17.220;2023-09-18T06:50:44;0;0;0
54021;PMS7003;39936;51.058;17.220;2023-09-18T06:54:03;0;0;0
54021;PMS7003;39936;51.058;17.220;2023-09-18T06:57:27;0;0;0
54021;PMS7003;39936;51.058;17.220;2023-09-18T07:01:09;0;0;0
54021;PMS7003;39936;51.058;17.220;2023-09-18T07:04:26;0;0;0
54021;PMS7003;39936;51.058;17.220;2023-09-18T07:07:47;0;0;0
54021;PMS7003;39936;51.058;17.220;2023-09-18T07:11:12;0;0;0
54021;PMS7003;39936;51.058;17.220;2023-09-18T07:14:38;0;0;0
54021;PMS7003;39936;51.058;17.220;2023-09-18T07:17:56;0;0;0
54021;PMS7003;39936;51.058;17.220;2023-09-18T07:21:17;2;2;2
54021;PMS7003;39936;51.058;17.220;2023-09-18T07:24:36;1;1;0
54021;PMS7003;39936;51.058;17.220;2023-09-18T07:27:57;0;0;0
54021;PMS7003;39936;51.058;17.220;2023-09-18T07:31:17;0;0;0
54021;PMS7003;39936;51.058;17.220;2023-09-18T07:34:35;0;0;0
54021;PMS7003;39936;51.058;17.220;2023-09-18T07:37:50;1;1;1
54021;PMS7003;39936;51.058;17.220;2023-09-18T07:41:29;0;0;0
54021;PMS7003;39936;51.058;17.220;2023-09-18T07:44:46;0;0;0
54021;PMS7003;39936;51.058;17.220;2023-09-18T07:48:48;0;0;0
54021;PMS7003;39936;51.058;17.220;2023-09-18T07:52:05;0;0;0
54021;PMS7003;39936;51.058;17.220;2023-09-18T07:55:21;0;0;0
54021;PMS7003;39936;51.058;17.220;2023-09-18T07:58:46;0;0;0
54021;PMS7003;39936;51.058;17.220;2023-09-18T08:02:06;3;1;0
54021;PMS7003;39936;51.058;17.220;2023-09-18T08:05:27;0;0;0
54021;PMS7003;39936;51.058;17.220;2023-09-18T08:08:49;0;0;0
54021;PMS7003;39936;51.058;17.220;2023-09-18T08:12:14;0;0;0
54021;PMS7003;39936;51.058;17.220;2023-09-18T08:15:29;0;0;0
54021;PMS7003;39936;51.058;17.220;2023-09-18T08:18:56;1;1;1
54021;PMS7003;39936;51.058;17.220;2023-09-18T08:22:14;0;0;0
54021;PMS7003;39936;51.058;17.220;2023-09-18T08:26:01;0;0;0
54021;PMS7003;39936;51.058;17.220;2023-09-18T08:29:23;0;0;0
54021;PMS7003;39936;51.058;17.220;2023-09-18T08:34:00;0;0;0
54021;PMS7003;39936;51.058;17.220;2023-09-18T08:37:30;0;0;0
54021;PMS7003;39936;51.058;17.220;2023-09-18T08:41:13;0;0;0
54021;PMS7003;39936;51.058;17.220;2023-09-18T08:44:51;0;0;0
54021;PMS7003;39936;51.058;17.220;2023-09-18T08:48:20;1;1;1
54021;PMS7003;39936;51.058;17.220;2023-09-18T08:51:55;0;0;0
54021;PMS7003;39936;51.058;17.220;2023-09-18T08:55:20;1;1;1
54021;PMS7003;39936;51.058;17.220;2023-09-18T08:58:37;0;0;0
54021;PMS7003;39936;51.058;17.220;2023-09-18T09:02:04;0;0;0
54021;PMS7003;39936;51.058;17.220;2023-09-18T09:06:30;0;0;0
54021;PMS7003;39936;51.058;17.220;2023-09-18T09:09:59;1;1;1
54021;PMS7003;39936;51.058;17.220;2023-09-18T09:13:25;0;0;0
54021;PMS7003;39936;51.058;17.220;2023-09-18T09:16:56;1;1;1
54021;PMS7003;39936;51.058;17.220;2023-09-18T09:20:15;0;0;0
54021;PMS7003;39936;51.058;17.220;2023-09-18T09:23:52;0;0;0
54021;PMS7003;39936;51.058;17.220;2023-09-18T09:28:03;4;4;3
54021;PMS7003;39936;51.058;17.220;2023-09-18T09:31:35;0;0;0
54021;PMS7003;39936;51.058;17.220;2023-09-18T09:35:34;1;1;0
54021;PMS7003;39936;51.058;17.220;2023-09-18T09:42:20;4;1;0
54021;PMS7003;39936;51.058;17.220;2023-09-18T09:46:04;0;0;0
54021;PMS7003;39936;51.058;17.220;2023-09-18T09:49:48;1;1;0
54021;PMS7003;39936;51.058;17.220;2023-09-18T09:53:07;0;0;0
54021;PMS7003;39936;51.058;17.220;2023-09-18T09:56:38;2;2;1
54021;PMS7003;39936;51.058;17.220;2023-09-18T09:59:52;0;0;0
54021;PMS7003;39936;51.058;17.220;2023-09-18T10:03:41;0;0;0
54021;PMS7003;39936;51.058;17.220;2023-09-18T10:07:07;1;1;1
54021;PMS7003;39936;51.058;17.220;2023-09-18T10:17:43;0;0;0
54021;PMS7003;39936;51.058;17.220;2023-09-18T10:25:13;0;0;0
54021;PMS7003;39936;51.058;17.220;2023-09-18T10:28:34;0;0;0
54021;PMS7003;39936;51.058;17.220;2023-09-18T10:31:53;1;1;1
54021;PMS7003;39936;51.058;17.220;2023-09-18T10:35:06;4;4;3
54021;PMS7003;39936;51.058;17.220;2023-09-18T10:38:48;0;0;0
54021;PMS7003;39936;51.058;17.220;2023-09-18T10:42:14;1;1;0
54021;PMS7003;39936;51.058;17.220;2023-09-18T10:45:40;0;0;0
54021;PMS7003;39936;51.058;17.220;2023-09-18T10:49:30;1;1;1
54021;PMS7003;39936;51.058;17.220;2023-09-18T10:52:48;0;0;0
54021;PMS7003;39936;51.058;17.220;2023-09-18T10:56:05;1;1;1
54021;PMS7003;39936;51.058;17.220;2023-09-18T10:59:45;1;1;0
54021;PMS7003;39936;51.058;17.220;2023-09-18T11:06:29;2;2;1
54021;PMS7003;39936;51.058;17.220;2023-09-18T11:09:58;0;0;0
54021;PMS7003;39936;51.058;17.220;2023-09-18T11:14:00;1;1;0
54021;PMS7003;39936;51.058;17.220;2023-09-18T11:21:06;2;2;1
54021;PMS7003;39936;51.058;17.220;2023-09-18T11:24:18;0;0;0
54021;PMS7003;39936;51.058;17.220;2023-09-18T11:39:04;2;2;0
54021;PMS7003;39936;51.058;17.220;2023-09-18T11:42:23;1;1;0
54021;PMS7003;39936;51.058;17.220;2023-09-18T11:45:42;1;1;1
54021;PMS7003;39936;51.058;17.220;2023-09-18T11:49:01;1;1;1
54021;PMS7003;39936;51.058;17.220;2023-09-18T11:52:30;1;1;0
54021;PMS7003;39936;51.058;17.220;2023-09-18T11:55:43;2;2;2
54021;PMS7003;39936;51.058;17.220;2023-09-18T11:58:59;2;2;0
54021;PMS7003;39936;51.058;17.220;2023-09-18T12:06:44;0;0;0
54021;PMS7003;39936;51.058;17.220;2023-09-18T12:10:19;3;2;2
54021;PMS7003;39936;51.058;17.220;2023-09-18T12:13:38;2;2;0
54021;PMS7003;39936;51.058;17.220;2023-09-18T12:16:54;4;4;2
54021;PMS7003;39936;51.058;17.220;2023-09-18T12:23:48;1;1;1
54021;PMS7003;39936;51.058;17.220;2023-09-18T12:27:07;0;0;0
54021;PMS7003;39936;51.058;17.220;2023-09-18T12:34:18;1;1;1
54021;PMS7003;39936;51.058;17.220;2023-09-18T12:37:45;0;0;0
54021;PMS7003;39936;51.058;17.220;2023-09-18T12:41:10;2;2;1
54021;PMS7003;39936;51.058;17.220;2023-09-18T12:48:28;2;2;1
54021;PMS7003;39936;51.058;17.220;2023-09-18T12:51:57;1;1;1
54021;PMS7003;39936;51.058;17.220;2023-09-18T12:55:47;3;3;3
54021;PMS7003;39936;51.058;17.220;2023-09-18T12:59:01;0;0;0
54021;PMS7003;39936;51.058;17.220;2023-09-18T13:02:23;0;0;0
54021;PMS7003;39936;51.058;17.220;2023-09-18T13:05:40;3;3;1
54021;PMS7003;39936;51.058;17.220;2023-09-18T13:09:19;0;0;0
54021;PMS7003;39936;51.058;17.220;2023-09-18T13:12:59;0;0;0
54021;PMS7003;39936;51.058;17.220;2023-09-18T13:16:26;1;1;0
54021;PMS7003;39936;51.058;17.220;2023-09-18T13:20:09;0;0;0
54021;PMS7003;39936;51.058;17.220;2023-09-18T13:23:37;2;1;1
54021;PMS7003;39936;51.058;17.220;2023-09-18T13:27:42;2;2;0
54021;PMS7003;39936;51.058;17.220;2023-09-18T13:31:27;0;0;0
54021;PMS7003;39936;51.058;17.220;2023-09-18T13:38:37;2;2;0
54021;PMS7003;39936;51.058;17.220;2023-09-18T13:41:58;1;1;1
54021;PMS7003;39936;51.058;17.220;2023-09-18T13:45:27;1;0;0
54021;PMS7003;39936;51.058;17.220;2023-09-18T13:49:14;3;3;0
54021;PMS7003;39936;51.058;17.220;2023-09-18T13:52:47;0;0;0
54021;PMS7003;39936;51.058;17.220;2023-09-18T13:56:13;1;1;1
54021;PMS7003;39936;51.058;17.220;2023-09-18T13:59:47;0;0;0
54021;PMS7003;39936;51.058;17.220;2023-09-18T14:06:56;1;1;1
54021;PMS7003;39936;51.058;17.220;2023-09-18T14:10:26;2;2;2
54021;PMS7003;39936;51.058;17.220;2023-09-18T14:18:23;2;2;2
54021;PMS7003;39936;51.058;17.220;2023-09-18T14:21:40;1;1;0
54021;PMS7003;39936;51.058;17.220;2023-09-18T14:25:21;3;3;1
54021;PMS7003;39936;51.058;17.220;2023-09-18T14:28:59;1;1;1
54021;PMS7003;39936;51.058;17.220;2023-09-18T14:32:27;2;2;1
54021;PMS7003;39936;51.058;17.220;2023-09-18T14:36:42;9;8;6
54021;PMS7003;39936;51.058;17.220;2023-09-18T14:39:56;2;2;0
54021;PMS7003;39936;51.058;17.220;2023-09-18T14:43:59;1;1;0
54021;PMS7003;39936;51.058;17.220;2023-09-18T14:47:27;3;3;1
54021;PMS7003;39936;51.058;17.220;2023-09-18T14:51:23;6;5;1
54021;PMS7003;39936;51.058;17.220;2023-09-18T14:54:44;15;13;13
54021;PMS7003;39936;51.058;17.220;2023-09-18T14:57:59;13;10;10
54021;PMS7003;39936;51.058;17.220;2023-09-18T15:01:11;1;1;1
54021;PMS7003;39936;51.058;17.220;2023-09-18T15:04:57;2;2;1
54021;PMS7003;39936;51.058;17.220;2023-09-18T15:08:33;2;2;2
54021;PMS7003;39936;51.058;17.220;2023-09-18T15:12:15;0;0;0
54021;PMS7003;39936;51.058;17.220;2023-09-18T15:15:58;1;1;1
54021;PMS7003;39936;51.058;17.220;2023-09-18T15:19:27;11;10;7
54021;PMS7003;39936;51.058;17.220;2023-09-18T15:23:05;3;3;2
54021;PMS7003;39936;51.058;17.220;2023-09-18T15:26:37;2;2;0
54021;PMS7003;39936;51.058;17.220;2023-09-18T15:30:10;2;2;2
54021;PMS7003;39936;51.058;17.220;2023-09-18T15:34:04;0;0;0
54021;PMS7003;39936;51.058;17.220;2023-09-18T15:37:49;12;10;10
54021;PMS7003;39936;51.058;17.220;2023-09-18T15:41:11;4;4;3
54021;PMS7003;39936;51.058;17.220;2023-09-18T15:44:49;14;14;14
54021;PMS7003;39936;51.058;17.220;2023-09-18T15:48:35;26;26;23
54021;PMS7003;39936;51.058;17.220;2023-09-18T15:52:08;0;0;0
54021;PMS7003;39936;51.058;17.220;2023-09-18T15:55:32;2;2;1
54021;PMS7003;39936;51.058;17.220;2023-09-18T16:02:58;1;1;0
54021;PMS7003;39936;51.058;17.220;2023-09-18T16:06:21;0;0;0
54021;PMS7003;39936;51.058;17.220;2023-09-18T16:09:58;0;0;0
54021;PMS7003;39936;51.058;17.220;2023-09-18T16:13:23;1;1;0
54021;PMS7003;39936;51.058;17.220;2023-09-18T16:17:01;1;1;1
54021;PMS7003;39936;51.058;17.220;2023-09-18T16:21:19;0;0;0
54021;PMS7003;39936;51.058;17.220;2023-09-18T16:24:55;1;1;1
54021;PMS7003;39936;51.058;17.220;2023-09-18T16:28:27;3;1;0
54021;PMS7003;39936;51.058;17.220;2023-09-18T16:32:10;3;3;3
54021;PMS7003;39936;51.058;17.220;2023-09-18T16:35:56;6;6;5
54021;PMS7003;39936;51.058;17.220;2023-09-18T16:40:02;0;0;0
54021;PMS7003;39936;51.058;17.220;2023-09-18T16:43:36;1;1;0
54021;PMS7003;39936;51.058;17.220;2023-09-18T16:47:03;0;0;0
54021;PMS7003;39936;51.058;17.220;2023-09-18T16:50:17;0;0;0
54021;PMS7003;39936;51.058;17.220;2023-09-18T16:53:54;2;2;2
54021;PMS7003;39936;51.058;17.220;2023-09-18T16:57:21;0;0;0
54021;PMS7003;39936;51.058;17.220;2023-09-18T17:00:34;0;0;0
54021;PMS7003;39936;51.058;17.220;2023-09-18T17:08:02;0;0;0
54021;PMS7003;39936;51.058;17.220;2023-09-18T17:11:23;0;0;0
54021;PMS7003;39936;51.058;17.220;2023-09-18T17:14:38;0;0;0
54021;PMS7003;39936;51.058;17.220;2023-09-18T17:18:21;0;0;0
54021;PMS7003;39936;51.058;17.220;2023-09-18T17:22:06;4;4;3
54021;PMS7003;39936;51.058;17.220;2023-09-18T17:25:31;0;0;0
54021;PMS7003;39936;51.058;17.220;2023-09-18T17:28:55;0;0;0
54021;PMS7003;39936;51.058;17.220;2023-09-18T17:32:21;1;1;1
54021;PMS7003;39936;51.058;17.220;2023-09-18T17:35:37;0;0;0
54021;PMS7003;39936;51.058;17.220;2023-09-18T17:39:13;0;0;0
54021;PMS7003;39936;51.058;17.220;2023-09-18T17:42:52;1;1;1
54021;PMS7003;39936;51.058;17.220;2023-09-18T17:49:59;0;0;0
54021;PMS7003;39936;51.058;17.220;2023-09-18T17:53:19;0;0;0
54021;PMS7003;39936;51.058;17.220;2023-09-18T18:00:33;1;1;1
54021;PMS7003;39936;51.058;17.220;2023-09-18T18:03:49;1;1;1
54021;PMS7003;39936;51.058;17.220;2023-09-18T18:07:17;0;0;0
54021;PMS7003;39936;51.058;17.220;2023-09-18T18:11:09;0;0;0
54021;PMS7003;39936;51.058;17.220;2023-09-18T18:14:35;0;0;0
54021;PMS7003;39936;51.058;17.220;2023-09-18T18:18:25;0;0;0
54021;PMS7003;39936;51.058;17.220;2023-09-18T18:21:43;26;23;19
54021;PMS7003;39936;51.058;17.220;2023-09-18T18:25:10;0;0;0
54021;PMS7003;39936;51.058;17.220;2023-09-18T18:28:26;0;0;0
54021;PMS7003;39936;51.058;17.220;2023-09-18T18:31:56;2;2;1
54021;PMS7003;39936;51.058;17.220;2023-09-18T18:35:08;0;0;0
54021;PMS7003;39936;51.058;17.220;2023-09-18T18:38:22;0;0;0
54021;PMS7003;39936;51.058;17.220;2023-09-18T18:41:37;10;10;9
54021;PMS7003;39936;51.058;17.220;2023-09-18T18:44:55;3;3;3
54021;PMS7003;39936;51.058;17.220;2023-09-18T18:48:13;6;6;5
54021;PMS7003;39936;51.058;17.220;2023-09-18T18:51:38;2;2;2
54021;PMS7003;39936;51.058;17.220;2023-09-18T18:54:59;3;3;3
54021;PMS7003;39936;51.058;17.220;2023-09-18T18:58:25;7;7;7
54021;PMS7003;39936;51.058;17.220;2023-09-18T19:01:46;4;4;4
54021;PMS7003;39936;51.058;17.220;2023-09-18T19:05:09;4;4;4
54021;PMS7003;39936;51.058;17.220;2023-09-18T19:08:35;14;14;13
54021;PMS7003;39936;51.058;17.220;2023-09-18T19:11:55;29;29;26
54021;PMS7003;39936;51.058;17.220;2023-09-18T19:15:16;33;31;29
54021;PMS7003;39936;51.058;17.220;2023-09-18T19:18:42;64;61;57
54021;PMS7003;39936;51.058;17.220;2023-09-18T19:22:06;63;60;57
54021;PMS7003;39936;51.058;17.220;2023-09-18T19:25:28;54;51;47
54021;PMS7003;39936;51.058;17.220;2023-09-18T19:29:00;47;44;42
54021;PMS7003;39936;51.058;17.220;2023-09-18T19:32:46;62;59;56
54021;PMS7003;39936;51.058;17.220;2023-09-18T19:40:39;65;60;58
54021;PMS7003;39936;51.058;17.220;2023-09-18T19:44:12;72;65;61
54021;PMS7003;39936;51.058;17.220;2023-09-18T19:47:41;57;51;48
54021;PMS7003;39936;51.058;17.220;2023-09-18T19:51:16;65;56;53
54021;PMS7003;39936;51.058;17.220;2023-09-18T19:54:49;60;52;48
54021;PMS7003;39936;51.058;17.220;2023-09-18T19:58:06;62;53;46
54021;PMS7003;39936;51.058;17.220;2023-09-18T20:02:07;35;31;29
54021;PMS7003;39936;51.058;17.220;2023-09-18T20:05:46;2;2;2
54021;PMS7003;39936;51.058;17.220;2023-09-18T20:09:34;0;0;0
54021;PMS7003;39936;51.058;17.220;2023-09-18T20:13:15;1;1;0
54021;PMS7003;39936;51.058;17.220;2023-09-18T20:16:29;2;2;1
54021;PMS7003;39936;51.058;17.220;2023-09-18T20:19:46;1;1;1
54021;PMS7003;39936;51.058;17.220;2023-09-18T20:23:33;0;0;0
54021;PMS7003;39936;51.058;17.220;2023-09-18T20:26:51;3;3;2
54021;PMS7003;39936;51.058;17.220;2023-09-18T20:30:11;0;0;0
54021;PMS7003;39936;51.058;17.220;2023-09-18T20:33:41;0;0;0
54021;PMS7003;39936;51.058;17.220;2023-09-18T20:36:59;0;0;0
54021;PMS7003;39936;51.058;17.220;2023-09-18T20:40:32;2;2;1
54021;PMS7003;39936;51.058;17.220;2023-09-18T20:43:52;0;0;0
54021;PMS7003;39936;51.058;17.220;2023-09-18T20:47:12;2;2;2
54021;PMS7003;39936;51.058;17.220;2023-09-18T20:50:31;2;2;1
54021;PMS7003;39936;51.058;17.220;2023-09-18T20:54:10;1;1;1
54021;PMS7003;39936;51.058;17.220;2023-09-18T20:58:00;0;0;0
54021;PMS7003;39936;51.058;17.220;2023-09-18T21:01:17;0;0;0
54021;PMS7003;39936;51.058;17.220;2023-09-18T21:05:06;0;0;0
54021;PMS7003;39936;51.058;17.220;2023-09-18T21:08:23;2;2;2
54021;PMS7003;39936;51.058;17.220;2023-09-18T21:12:00;1;1;1
54021;PMS7003;39936;51.058;17.220;2023-09-18T21:15:19;0;0;0
54021;PMS7003;39936;51.058;17.220;2023-09-18T21:18:47;2;2;2
54021;PMS7003;39936;51.058;17.220;2023-09-18T21:22:25;1;1;1
54021;PMS7003;39936;51.058;17.220;2023-09-18T21:25:42;0;0;0
54021;PMS7003;39936;51.058;17.220;2023-09-18T21:33:40;2;2;2
54021;PMS7003;39936;51.058;17.220;2023-09-18T21:37:00;2;2;2
54021;PMS7003;39936;51.058;17.220;2023-09-18T21:40:25;0;0;0
54021;PMS7003;39936;51.058;17.220;2023-09-18T21:43:41;1;1;1
54021;PMS7003;39936;51.058;17.220;2023-09-18T21:47:16;0;0;0
54021;PMS7003;39936;51.058;17.220;2023-09-18T21:51:04;1;1;1
54021;PMS7003;39936;51.058;17.220;2023-09-18T21:55:11;1;1;1
54021;PMS7003;39936;51.058;17.220;2023-09-18T21:58:48;3;3;2
54021;PMS7003;39936;51.058;17.220;2023-09-18T22:02:14;0;0;0
54021;PMS7003;39936;51.058;17.220;2023-09-18T22:05:31;0;0;0
54021;PMS7003;39936;51.058;17.220;2023-09-18T22:08:47;1;1;1
54021;PMS7003;39936;51.058;17.220;2023-09-18T22:12:04;2;2;1
54021;PMS7003;39936;51.058;17.220;2023-09-18T22:15:40;0;0;0
54021;PMS7003;39936;51.058;17.220;2023-09-18T22:19:46;26;22;16
54021;PMS7003;39936;51.058;17.220;2023-09-18T22:23:25;1;1;0
54021;PMS7003;39936;51.058;17.220;2023-09-18T22:26:40;0;0;0
54021;PMS7003;39936;51.058;17.220;2023-09-18T22:29:58;0;0;0
54021;PMS7003;39936;51.058;17.220;2023-09-18T22:37:08;0;0;0
54021;PMS7003;39936;51.058;17.220;2023-09-18T22:55:26;0;0;0
54021;PMS7003;39936;51.058;17.220;2023-09-18T22:58:46;0;0;0
54021;PMS7003;39936;51.058;17.220;2023-09-18T23:02:07;0;0;0
54021;PMS7003;39936;51.058;17.220;2023-09-18T23:05:40;0;0;0
54021;PMS7003;39936;51.058;17.220;2023-09-18T23:09:16;2;2;2
54021;PMS7003;39936;51.058;17.220;2023-09-18T23:12:30;0;0;0
54021;PMS7003;39936;51.058;17.220;2023-09-18T23:16:11;2;2;1
54021;PMS7003;39936;51.058;17.220;2023-09-18T23:19:26;1;1;1
54021;PMS7003;39936;51.058;17.220;2023-09-18T23:22:44;2;2;2
54021;PMS7003;39936;51.058;17.220;2023-09-18T23:25:56;0;0;0
54021;PMS7003;39936;51.058;17.220;2023-09-18T23:29:13;0;0;0
54021;PMS7003;39936;51.058;17.220;2023-09-18T23:32:31;2;2;2
54021;PMS7003;39936;51.058;17.220;2023-09-18T23:35:43;1;1;1
54021;PMS7003;39936;51.058;17.220;2023-09-18T23:39:11;2;2;2
54021;PMS7003;39936;51.058;17.220;2023-09-18T23:46:54;0;0;0
54021;PMS7003;39936;51.058;17.220;2023-09-18T23:50:10;8;7;7
54021;PMS7003;39936;51.058;17.220;2023-09-18T23:53:51;1;1;1
54021;PMS7003;39936;51.058;17.220;2023-09-18T23:57:13;1;1;1
